sensor_id;sensor_type;location;lat;lon;timestamp;pressure;altitude;pressure_sealevel;temperature;humidity
46942;BME280;32676;52.630;4.896;2023-08-07T00:02:19;99617.31;;;14.38;81.02
46942;BME280;32676;52.630;4.896;2023-08-07T00:04:45;99637.44;;;14.41;80.56
46942;BME280;32676;52.630;4.896;2023-08-07T00:07:12;99646.94;;;14.44;80.17
46942;BME280;32676;52.630;4.896;2023-08-07T00:09:38;99661.78;;;14.46;80.17
46942;BME280;32676;52.630;4.896;2023-08-07T00:12:04;99671.28;;;14.49;79.86
46942;BME280;32676;52.630;4.896;2023-08-07T00:14:32;99679.09;;;14.50;79.75
46942;BME280;32676;52.630;4.896;2023-08-07T00:16:58;99682.50;;;14.52;79.90
46942;BME280;32676;52.630;4.896;2023-08-07T00:19:25;99693.06;;;14.52;79.20
46942;BME280;32676;52.630;4.896;2023-08-07T00:21:51;99700.03;;;14.53;78.97
46942;BME280;32676;52.630;4.896;2023-08-07T00:24:18;99708.72;;;14.55;79.06
46942;BME280;32676;52.630;4.896;2023-08-07T00:26:44;99722.72;;;14.57;78.88
46942;BME280;32676;52.630;4.896;2023-08-07T00:29:11;99728.75;;;14.59;79.05
46942;BME280;32676;52.630;4.896;2023-08-07T00:31:39;99728.84;;;14.58;79.89
46942;BME280;32676;52.630;4.896;2023-08-07T00:34:06;99706.28;;;14.52;80.31
46942;BME280;32676;52.630;4.896;2023-08-07T00:36:32;99674.00;;;14.47;80.78
46942;BME280;32676;52.630;4.896;2023-08-07T00:38:59;99656.69;;;14.43;80.96
46942;BME280;32676;52.630;4.896;2023-08-07T00:41:26;99635.00;;;14.38;80.97
46942;BME280;32676;52.630;4.896;2023-08-07T00:43:52;99631.59;;;14.36;81.10
46942;BME280;32676;52.630;4.896;2023-08-07T00:46:18;99630.88;;;14.34;81.35
46942;BME280;32676;52.630;4.896;2023-08-07T00:48:46;99616.06;;;14.31;81.22
46942;BME280;32676;52.630;4.896;2023-08-07T00:51:12;99600.53;;;14.27;81.15
46942;BME280;32676;52.630;4.896;2023-08-07T00:53:39;99588.34;;;14.24;80.84
46942;BME280;32676;52.630;4.896;2023-08-07T00:56:06;99589.31;;;14.23;81.23
46942;BME280;32676;52.630;4.896;2023-08-07T00:58:32;99584.88;;;14.24;81.84
46942;BME280;32676;52.630;4.896;2023-08-07T01:00:58;99592.78;;;14.24;82.20
46942;BME280;32676;52.630;4.896;2023-08-07T01:03:25;99592.78;;;14.24;82.52
46942;BME280;32676;52.630;4.896;2023-08-07T01:05:52;99598.91;;;14.24;82.87
46942;BME280;32676;52.630;4.896;2023-08-07T01:08:19;99589.41;;;14.21;83.62
46942;BME280;32676;52.630;4.896;2023-08-07T01:10:50;99586.03;;;14.19;84.28
46942;BME280;32676;52.630;4.896;2023-08-07T01:13:20;99574.72;;;14.17;84.53
46942;BME280;32676;52.630;4.896;2023-08-07T01:15:48;99563.41;;;14.15;84.38
46942;BME280;32676;52.630;4.896;2023-08-07T01:18:18;99564.25;;;14.16;84.16
46942;BME280;32676;52.630;4.896;2023-08-07T01:20:45;99565.28;;;14.13;84.59
46942;BME280;32676;52.630;4.896;2023-08-07T01:23:13;99565.28;;;14.13;84.68
46942;BME280;32676;52.630;4.896;2023-08-07T01:25:39;99554.94;;;14.10;84.76
46942;BME280;32676;52.630;4.896;2023-08-07T01:28:06;99550.59;;;14.09;84.83
46942;BME280;32676;52.630;4.896;2023-08-07T01:30:38;99550.59;;;14.09;85.42
46942;BME280;32676;52.630;4.896;2023-08-07T01:33:09;99551.34;;;14.11;85.51
46942;BME280;32676;52.630;4.896;2023-08-07T01:35:39;99556.63;;;14.11;85.44
46942;BME280;32676;52.630;4.896;2023-08-07T01:38:06;99561.91;;;14.11;85.67
46942;BME280;32676;52.630;4.896;2023-08-07T01:40:34;99561.06;;;14.11;85.85
46942;BME280;32676;52.630;4.896;2023-08-07T01:43:02;99575.13;;;14.11;85.94
46942;BME280;32676;52.630;4.896;2023-08-07T01:45:28;99564.66;;;14.10;85.53
46942;BME280;32676;52.630;4.896;2023-08-07T01:47:55;99562.13;;;14.08;86.12
46942;BME280;32676;52.630;4.896;2023-08-07T01:50:21;99552.59;;;14.06;86.19
46942;BME280;32676;52.630;4.896;2023-08-07T01:52:48;99540.47;;;14.03;86.57
46942;BME280;32676;52.630;4.896;2023-08-07T01:55:14;99526.63;;;13.99;86.81
46942;BME280;32676;52.630;4.896;2023-08-07T01:57:42;99528.44;;;13.99;86.80
46942;BME280;32676;52.630;4.896;2023-08-07T02:00:09;99518.06;;;13.96;87.04
46942;BME280;32676;52.630;4.896;2023-08-07T02:02:35;99508.44;;;13.95;86.75
46942;BME280;32676;52.630;4.896;2023-08-07T02:05:02;99498.09;;;13.92;86.62
46942;BME280;32676;52.630;4.896;2023-08-07T02:07:28;99497.31;;;13.90;86.26
46942;BME280;32676;52.630;4.896;2023-08-07T02:09:55;99499.97;;;13.90;86.36
46942;BME280;32676;52.630;4.896;2023-08-07T02:12:21;99505.25;;;13.90;86.24
46942;BME280;32676;52.630;4.896;2023-08-07T02:14:49;99506.94;;;13.91;86.73
46942;BME280;32676;52.630;4.896;2023-08-07T02:17:15;99518.25;;;13.93;86.29
46942;BME280;32676;52.630;4.896;2023-08-07T02:19:41;99531.25;;;13.96;86.68
46942;BME280;32676;52.630;4.896;2023-08-07T02:22:07;99534.84;;;13.95;86.85
46942;BME280;32676;52.630;4.896;2023-08-07T02:24:34;99555.56;;;14.01;86.46
46942;BME280;32676;52.630;4.896;2023-08-07T02:27:00;99569.31;;;14.06;86.68
46942;BME280;32676;52.630;4.896;2023-08-07T02:29:26;99588.56;;;14.08;86.81
46942;BME280;32676;52.630;4.896;2023-08-07T02:31:56;99599.75;;;14.12;86.66
46942;BME280;32676;52.630;4.896;2023-08-07T02:34:22;99615.47;;;14.13;86.87
46942;BME280;32676;52.630;4.896;2023-08-07T02:36:48;99623.22;;;14.16;86.78
46942;BME280;32676;52.630;4.896;2023-08-07T02:39:15;99635.50;;;14.17;87.08
46942;BME280;32676;52.630;4.896;2023-08-07T02:41:41;99649.44;;;14.19;86.80
46942;BME280;32676;52.630;4.896;2023-08-07T02:44:08;99657.28;;;14.21;87.08
46942;BME280;32676;52.630;4.896;2023-08-07T02:46:34;99666.78;;;14.24;87.03
46942;BME280;32676;52.630;4.896;2023-08-07T02:49:02;99667.75;;;14.23;87.10
46942;BME280;32676;52.630;4.896;2023-08-07T02:51:29;99662.56;;;14.21;87.02
46942;BME280;32676;52.630;4.896;2023-08-07T02:53:56;99648.69;;;14.17;87.43
46942;BME280;32676;52.630;4.896;2023-08-07T02:56:22;99642.69;;;14.15;87.93
46942;BME280;32676;52.630;4.896;2023-08-07T02:58:49;99627.03;;;14.12;88.12
46942;BME280;32676;52.630;4.896;2023-08-07T03:01:15;99618.34;;;14.10;88.07
46942;BME280;32676;52.630;4.896;2023-08-07T03:03:41;99612.31;;;14.08;88.31
46942;BME280;32676;52.630;4.896;2023-08-07T03:06:09;99608.81;;;14.08;88.01
46942;BME280;32676;52.630;4.896;2023-08-07T03:08:35;99603.66;;;14.06;88.03
46942;BME280;32676;52.630;4.896;2023-08-07T03:11:02;99595.94;;;14.03;87.80
46942;BME280;32676;52.630;4.896;2023-08-07T03:13:28;99575.19;;;13.97;88.43
46942;BME280;32676;52.630;4.896;2023-08-07T03:16:00;99564.75;;;13.95;88.48
46942;BME280;32676;52.630;4.896;2023-08-07T03:18:27;99554.28;;;13.94;88.20
46942;BME280;32676;52.630;4.896;2023-08-07T03:20:53;99558.69;;;13.93;88.27
46942;BME280;32676;52.630;4.896;2023-08-07T03:23:21;99550.91;;;13.92;88.52
46942;BME280;32676;52.630;4.896;2023-08-07T03:25:47;99558.84;;;13.92;88.63
46942;BME280;32676;52.630;4.896;2023-08-07T03:28:14;99557.03;;;13.92;88.71
46942;BME280;32676;52.630;4.896;2023-08-07T03:30:40;99569.28;;;13.93;88.74
46942;BME280;32676;52.630;4.896;2023-08-07T03:33:07;99578.81;;;13.96;88.74
46942;BME280;32676;52.630;4.896;2023-08-07T03:35:33;99592.75;;;13.98;88.88
46942;BME280;32676;52.630;4.896;2023-08-07T03:37:59;99595.28;;;13.99;88.69
46942;BME280;32676;52.630;4.896;2023-08-07T03:40:27;99599.75;;;13.99;88.68
46942;BME280;32676;52.630;4.896;2023-08-07T03:42:54;99613.59;;;14.02;88.38
46942;BME280;32676;52.630;4.896;2023-08-07T03:45:20;99615.34;;;14.02;88.40
46942;BME280;32676;52.630;4.896;2023-08-07T03:47:46;99603.31;;;13.98;88.62
46942;BME280;32676;52.630;4.896;2023-08-07T03:50:13;99574.56;;;13.93;88.55
46942;BME280;32676;52.630;4.896;2023-08-07T03:52:39;99573.91;;;13.90;88.91
46942;BME280;32676;52.630;4.896;2023-08-07T03:55:05;99549.53;;;13.86;88.79
46942;BME280;32676;52.630;4.896;2023-08-07T03:57:33;99551.41;;;13.84;88.57
46942;BME280;32676;52.630;4.896;2023-08-07T03:59:59;99536.63;;;13.81;88.58
46942;BME280;32676;52.630;4.896;2023-08-07T04:02:26;99532.28;;;13.80;88.58
46942;BME280;32676;52.630;4.896;2023-08-07T04:04:53;99542.84;;;13.80;88.31
46942;BME280;32676;52.630;4.896;2023-08-07T04:07:20;99545.38;;;13.82;88.45
46942;BME280;32676;52.630;4.896;2023-08-07T04:09:46;99542.84;;;13.80;88.79
46942;BME280;32676;52.630;4.896;2023-08-07T04:12:12;99537.56;;;13.80;88.84
46942;BME280;32676;52.630;4.896;2023-08-07T04:14:40;99549.81;;;13.81;89.02
46942;BME280;32676;52.630;4.896;2023-08-07T04:17:06;99535.88;;;13.79;89.36
46942;BME280;32676;52.630;4.896;2023-08-07T04:19:33;99536.81;;;13.78;89.54
46942;BME280;32676;52.630;4.896;2023-08-07T04:21:59;99537.78;;;13.77;90.04
46942;BME280;32676;52.630;4.896;2023-08-07T04:24:25;99541.16;;;13.79;89.78
46942;BME280;32676;52.630;4.896;2023-08-07T04:26:52;99540.41;;;13.77;90.00
46942;BME280;32676;52.630;4.896;2023-08-07T04:29:19;99557.00;;;13.79;89.61
46942;BME280;32676;52.630;4.896;2023-08-07T04:31:47;99560.38;;;13.81;89.22
46942;BME280;32676;52.630;4.896;2023-08-07T04:34:13;99573.38;;;13.85;89.02
46942;BME280;32676;52.630;4.896;2023-08-07T04:36:42;99589.75;;;13.90;88.99
46942;BME280;32676;52.630;4.896;2023-08-07T04:39:08;99613.44;;;13.91;88.77
46942;BME280;32676;52.630;4.896;2023-08-07T04:41:35;99628.25;;;13.94;88.67
46942;BME280;32676;52.630;4.896;2023-08-07T04:44:01;99641.22;;;13.97;88.49
46942;BME280;32676;52.630;4.896;2023-08-07T04:46:27;99654.25;;;14.00;88.05
46942;BME280;32676;52.630;4.896;2023-08-07T04:48:55;99675.00;;;14.06;87.50
46942;BME280;32676;52.630;4.896;2023-08-07T04:51:21;99686.28;;;14.08;86.65
46942;BME280;32676;52.630;4.896;2023-08-07T04:53:48;99707.09;;;14.13;85.92
46942;BME280;32676;52.630;4.896;2023-08-07T04:56:15;99728.91;;;14.16;84.90
46942;BME280;32676;52.630;4.896;2023-08-07T04:58:42;99742.84;;;14.18;84.42
46942;BME280;32676;52.630;4.896;2023-08-07T05:01:08;99753.22;;;14.21;83.90
46942;BME280;32676;52.630;4.896;2023-08-07T05:03:35;99767.94;;;14.26;83.02
46942;BME280;32676;52.630;4.896;2023-08-07T05:06:02;99788.78;;;14.30;82.51
46942;BME280;32676;52.630;4.896;2023-08-07T05:08:29;99798.28;;;14.33;82.45
46942;BME280;32676;52.630;4.896;2023-08-07T05:10:55;99816.59;;;14.36;82.23
46942;BME280;32676;52.630;4.896;2023-08-07T05:13:21;99830.47;;;14.39;82.00
46942;BME280;32676;52.630;4.896;2023-08-07T05:15:48;99840.00;;;14.42;81.81
46942;BME280;32676;52.630;4.896;2023-08-07T05:18:14;99849.72;;;14.42;81.48
46942;BME280;32676;52.630;4.896;2023-08-07T05:20:41;99860.94;;;14.45;81.01
46942;BME280;32676;52.630;4.896;2023-08-07T05:23:08;99878.31;;;14.49;80.45
46942;BME280;32676;52.630;4.896;2023-08-07T05:25:35;99893.97;;;14.52;80.34
46942;BME280;32676;52.630;4.896;2023-08-07T05:28:02;99909.66;;;14.55;79.85
46942;BME280;32676;52.630;4.896;2023-08-07T05:30:28;99930.44;;;14.62;79.67
46942;BME280;32676;52.630;4.896;2023-08-07T05:32:54;99944.41;;;14.64;79.34
46942;BME280;32676;52.630;4.896;2023-08-07T05:35:22;99949.59;;;14.65;78.80
46942;BME280;32676;52.630;4.896;2023-08-07T05:37:48;99965.38;;;14.67;78.67
46942;BME280;32676;52.630;4.896;2023-08-07T05:40:16;99986.13;;;14.73;78.45
46942;BME280;32676;52.630;4.896;2023-08-07T05:42:43;100009.66;;;14.77;78.13
46942;BME280;32676;52.630;4.896;2023-08-07T05:45:09;100034.88;;;14.83;77.67
46942;BME280;32676;52.630;4.896;2023-08-07T05:47:36;100039.97;;;14.86;77.17
46942;BME280;32676;52.630;4.896;2023-08-07T05:50:03;100062.72;;;14.89;76.62
46942;BME280;32676;52.630;4.896;2023-08-07T05:52:29;100074.91;;;14.91;76.50
46942;BME280;32676;52.630;4.896;2023-08-07T05:54:55;100080.00;;;14.94;76.17
46942;BME280;32676;52.630;4.896;2023-08-07T05:57:25;100100.97;;;14.97;76.12
46942;BME280;32676;52.630;4.896;2023-08-07T05:59:51;100120.06;;;15.03;76.25
46942;BME280;32676;52.630;4.896;2023-08-07T06:02:17;100130.44;;;15.06;76.28
46942;BME280;32676;52.630;4.896;2023-08-07T06:04:44;100154.91;;;15.09;76.17
46942;BME280;32676;52.630;4.896;2023-08-07T06:07:10;100161.84;;;15.12;76.10
46942;BME280;32676;52.630;4.896;2023-08-07T06:09:37;100177.50;;;15.15;76.15
46942;BME280;32676;52.630;4.896;2023-08-07T06:12:03;100193.19;;;15.18;76.12
46942;BME280;32676;52.630;4.896;2023-08-07T06:14:31;100190.56;;;15.18;76.37
46942;BME280;32676;52.630;4.896;2023-08-07T06:16:58;100193.19;;;15.18;76.13
46942;BME280;32676;52.630;4.896;2023-08-07T06:19:26;100191.47;;;15.17;76.22
46942;BME280;32676;52.630;4.896;2023-08-07T06:21:53;100177.50;;;15.15;76.22
46942;BME280;32676;52.630;4.896;2023-08-07T06:24:20;100172.41;;;15.12;75.94
46942;BME280;32676;52.630;4.896;2023-08-07T06:26:46;100161.09;;;15.10;75.93
46942;BME280;32676;52.630;4.896;2023-08-07T06:29:12;100142.00;;;15.05;75.84
46942;BME280;32676;52.630;4.896;2023-08-07T06:31:40;100116.66;;;15.01;75.86
46942;BME280;32676;52.630;4.896;2023-08-07T06:34:06;100107.97;;;14.98;76.06
46942;BME280;32676;52.630;4.896;2023-08-07T06:36:33;100107.97;;;14.98;76.76
46942;BME280;32676;52.630;4.896;2023-08-07T06:38:59;100126.28;;;15.02;76.98
46942;BME280;32676;52.630;4.896;2023-08-07T06:41:25;100153.31;;;15.07;76.98
46942;BME280;32676;52.630;4.896;2023-08-07T06:43:51;100172.41;;;15.12;77.42
46942;BME280;32676;52.630;4.896;2023-08-07T06:46:18;100201.13;;;15.18;77.04
46942;BME280;32676;52.630;4.896;2023-08-07T06:48:50;100209.84;;;15.20;76.34
46942;BME280;32676;52.630;4.896;2023-08-07T06:51:16;100222.88;;;15.23;75.21
46942;BME280;32676;52.630;4.896;2023-08-07T06:53:43;100255.97;;;15.30;74.52
46942;BME280;32676;52.630;4.896;2023-08-07T06:56:09;100318.56;;;15.46;73.94
46942;BME280;32676;52.630;4.896;2023-08-07T06:58:35;100371.72;;;15.57;73.79
46942;BME280;32676;52.630;4.896;2023-08-07T07:01:02;100427.38;;;15.71;73.03
46942;BME280;32676;52.630;4.896;2023-08-07T07:03:29;100480.63;;;15.83;71.06
46942;BME280;32676;52.630;4.896;2023-08-07T07:05:56;100530.31;;;15.93;69.46
46942;BME280;32676;52.630;4.896;2023-08-07T07:08:23;100568.66;;;16.02;68.87
46942;BME280;32676;52.630;4.896;2023-08-07T07:10:49;100602.56;;;16.11;68.30
46942;BME280;32676;52.630;4.896;2023-08-07T07:13:15;100649.72;;;16.21;67.88
46942;BME280;32676;52.630;4.896;2023-08-07T07:15:42;100705.47;;;16.35;67.76
46942;BME280;32676;52.630;4.896;2023-08-07T07:18:08;100732.56;;;16.40;67.51
46942;BME280;32676;52.630;4.896;2023-08-07T07:20:34;100715.69;;;16.27;66.83
46942;BME280;32676;52.630;4.896;2023-08-07T07:23:02;100743.00;;;16.43;66.43
46942;BME280;32676;52.630;4.896;2023-08-07T07:25:28;100728.22;;;16.39;66.15
46942;BME280;32676;52.630;4.896;2023-08-07T07:27:55;100754.38;;;16.45;66.28
46942;BME280;32676;52.630;4.896;2023-08-07T07:30:21;100784.84;;;16.54;66.54
46942;BME280;32676;52.630;4.896;2023-08-07T07:32:49;100775.25;;;16.51;65.49
46942;BME280;32676;52.630;4.896;2023-08-07T07:35:17;100805.88;;;16.57;64.41
46942;BME280;32676;52.630;4.896;2023-08-07T07:37:43;100831.22;;;16.63;64.66
46942;BME280;32676;52.630;4.896;2023-08-07T07:40:11;100829.31;;;16.65;64.49
46942;BME280;32676;52.630;4.896;2023-08-07T07:42:37;100843.34;;;16.67;64.18
46942;BME280;32676;52.630;4.896;2023-08-07T07:45:04;100876.38;;;16.77;64.86
46942;BME280;32676;52.630;4.896;2023-08-07T07:47:31;100904.44;;;16.81;64.52
46942;BME280;32676;52.630;4.896;2023-08-07T07:50:04;100937.69;;;16.88;64.32
46942;BME280;32676;52.630;4.896;2023-08-07T07:52:31;100937.69;;;16.88;62.76
46942;BME280;32676;52.630;4.896;2023-08-07T07:54:57;100944.69;;;16.89;61.08
46942;BME280;32676;52.630;4.896;2023-08-07T07:57:25;100933.22;;;16.89;60.53
46942;BME280;32676;52.630;4.896;2023-08-07T07:59:52;100954.28;;;16.92;61.11
46942;BME280;32676;52.630;4.896;2023-08-07T08:02:18;100966.44;;;16.96;60.79
46942;BME280;32676;52.630;4.896;2023-08-07T08:04:44;100984.78;;;17.01;60.29
46942;BME280;32676;52.630;4.896;2023-08-07T08:07:11;100995.19;;;17.04;59.87
46942;BME280;32676;52.630;4.896;2023-08-07T08:09:38;101021.44;;;17.10;58.95
46942;BME280;32676;52.630;4.896;2023-08-07T08:12:04;101047.63;;;17.16;59.00
46942;BME280;32676;52.630;4.896;2023-08-07T08:14:32;101065.09;;;17.20;58.69
46942;BME280;32676;52.630;4.896;2023-08-07T08:16:58;101103.56;;;17.29;58.89
46942;BME280;32676;52.630;4.896;2023-08-07T08:19:25;101117.34;;;17.36;58.91
46942;BME280;32676;52.630;4.896;2023-08-07T08:21:51;101145.47;;;17.40;58.47
46942;BME280;32676;52.630;4.896;2023-08-07T08:24:18;101172.56;;;17.46;58.58
46942;BME280;32676;52.630;4.896;2023-08-07T08:26:45;101145.47;;;17.40;59.50
46942;BME280;32676;52.630;4.896;2023-08-07T08:29:13;101110.47;;;17.32;59.38
46942;BME280;32676;52.630;4.896;2023-08-07T08:31:41;101086.00;;;17.26;59.51
46942;BME280;32676;52.630;4.896;2023-08-07T08:34:07;101052.56;;;17.22;59.70
46942;BME280;32676;52.630;4.896;2023-08-07T08:36:34;101115.56;;;17.36;60.26
46942;BME280;32676;52.630;4.896;2023-08-07T08:39:00;101136.56;;;17.41;60.50
46942;BME280;32676;52.630;4.896;2023-08-07T08:41:26;101172.44;;;17.48;60.55
46942;BME280;32676;52.630;4.896;2023-08-07T08:43:54;101176.81;;;17.49;59.97
46942;BME280;32676;52.630;4.896;2023-08-07T08:46:22;101161.03;;;17.46;59.21
46942;BME280;32676;52.630;4.896;2023-08-07T08:48:52;101177.66;;;17.50;59.58
46942;BME280;32676;52.630;4.896;2023-08-07T08:51:22;101204.78;;;17.56;60.00
46942;BME280;32676;52.630;4.896;2023-08-07T08:53:50;101228.34;;;17.62;60.19
46942;BME280;32676;52.630;4.896;2023-08-07T08:56:17;101248.50;;;17.67;60.36
46942;BME280;32676;52.630;4.896;2023-08-07T08:58:43;101209.16;;;17.57;60.13
46942;BME280;32676;52.630;4.896;2023-08-07T09:01:10;101168.84;;;17.49;59.79
46942;BME280;32676;52.630;4.896;2023-08-07T09:03:37;101121.56;;;17.40;58.90
46942;BME280;32676;52.630;4.896;2023-08-07T09:06:05;101122.47;;;17.39;59.19
46942;BME280;32676;52.630;4.896;2023-08-07T09:08:32;101104.06;;;17.36;59.80
46942;BME280;32676;52.630;4.896;2023-08-07T09:11:00;101064.75;;;17.26;59.76
46942;BME280;32676;52.630;4.896;2023-08-07T09:13:28;101067.41;;;17.26;60.14
46942;BME280;32676;52.630;4.896;2023-08-07T09:15:55;101066.44;;;17.27;61.34
46942;BME280;32676;52.630;4.896;2023-08-07T09:18:21;101112.81;;;17.38;61.74
46942;BME280;32676;52.630;4.896;2023-08-07T09:20:48;101120.63;;;17.41;61.83
46942;BME280;32676;52.630;4.896;2023-08-07T09:23:16;101101.41;;;17.36;60.91
46942;BME280;32676;52.630;4.896;2023-08-07T09:25:42;101137.31;;;17.43;60.72
46942;BME280;32676;52.630;4.896;2023-08-07T09:28:09;101169.63;;;17.51;60.30
46942;BME280;32676;52.630;4.896;2023-08-07T09:30:35;101264.94;;;17.73;59.31
46942;BME280;32676;52.630;4.896;2023-08-07T09:33:03;101300.81;;;17.82;56.97
46942;BME280;32676;52.630;4.896;2023-08-07T09:35:30;101287.69;;;17.79;56.89
46942;BME280;32676;52.630;4.896;2023-08-07T09:37:57;101294.72;;;17.80;56.54
46942;BME280;32676;52.630;4.896;2023-08-07T09:40:25;101299.09;;;17.81;56.84
46942;BME280;32676;52.630;4.896;2023-08-07T09:42:51;101276.28;;;17.77;55.83
46942;BME280;32676;52.630;4.896;2023-08-07T09:45:20;101276.19;;;17.78;56.19
46942;BME280;32676;52.630;4.896;2023-08-07T09:47:47;101291.13;;;17.81;57.09
46942;BME280;32676;52.630;4.896;2023-08-07T09:50:22;101313.91;;;17.87;57.96
46942;BME280;32676;52.630;4.896;2023-08-07T09:52:49;101319.09;;;17.88;57.91
46942;BME280;32676;52.630;4.896;2023-08-07T09:55:15;101314.75;;;17.87;58.51
46942;BME280;32676;52.630;4.896;2023-08-07T09:57:44;101261.38;;;17.74;57.83
46942;BME280;32676;52.630;4.896;2023-08-07T10:00:11;101224.47;;;17.68;57.71
46942;BME280;32676;52.630;4.896;2023-08-07T10:02:40;101256.91;;;17.75;56.67
46942;BME280;32676;52.630;4.896;2023-08-07T10:05:07;101308.56;;;17.87;56.73
46942;BME280;32676;52.630;4.896;2023-08-07T10:07:34;101367.25;;;17.99;57.11
46942;BME280;32676;52.630;4.896;2023-08-07T10:10:00;101436.31;;;18.17;57.55
46942;BME280;32676;52.630;4.896;2023-08-07T10:12:28;101458.22;;;18.22;56.70
46942;BME280;32676;52.630;4.896;2023-08-07T10:14:56;101474.88;;;18.26;56.00
46942;BME280;32676;52.630;4.896;2023-08-07T10:17:22;101521.25;;;18.37;56.78
46942;BME280;32676;52.630;4.896;2023-08-07T10:19:50;101523.81;;;18.39;57.36
46942;BME280;32676;52.630;4.896;2023-08-07T10:22:19;101502.78;;;18.34;56.45
46942;BME280;32676;52.630;4.896;2023-08-07T10:24:47;101486.06;;;18.32;55.79
46942;BME280;32676;52.630;4.896;2023-08-07T10:27:14;101522.97;;;18.38;55.79
46942;BME280;32676;52.630;4.896;2023-08-07T10:29:41;101545.63;;;18.46;55.72
46942;BME280;32676;52.630;4.896;2023-08-07T10:32:09;101580.69;;;18.54;55.76
46942;BME280;32676;52.630;4.896;2023-08-07T10:34:36;101557.13;;;18.46;54.48
46942;BME280;32676;52.630;4.896;2023-08-07T10:37:02;101570.22;;;18.51;53.27
46942;BME280;32676;52.630;4.896;2023-08-07T10:39:32;101610.56;;;18.59;53.66
46942;BME280;32676;52.630;4.896;2023-08-07T10:41:58;101677.09;;;18.76;54.35
46942;BME280;32676;52.630;4.896;2023-08-07T10:44:26;101743.00;;;18.90;53.74
46942;BME280;32676;52.630;4.896;2023-08-07T10:46:56;101734.22;;;18.88;53.59
46942;BME280;32676;52.630;4.896;2023-08-07T10:49:36;101726.13;;;18.90;54.27
46942;BME280;32676;52.630;4.896;2023-08-07T10:52:03;101702.50;;;18.84;54.68
46942;BME280;32676;52.630;4.896;2023-08-07T10:54:30;101673.50;;;18.77;54.87
46942;BME280;32676;52.630;4.896;2023-08-07T10:56:56;101606.81;;;18.63;56.30
46942;BME280;32676;52.630;4.896;2023-08-07T10:59:25;101608.53;;;18.64;58.23
46942;BME280;32676;52.630;4.896;2023-08-07T11:01:55;101692.78;;;18.83;58.99
46942;BME280;32676;52.630;4.896;2023-08-07T11:04:21;101740.25;;;18.92;59.72
46942;BME280;32676;52.630;4.896;2023-08-07T11:06:51;101710.31;;;18.87;59.04
46942;BME280;32676;52.630;4.896;2023-08-07T11:09:17;101703.25;;;18.86;59.01
46942;BME280;32676;52.630;4.896;2023-08-07T11:11:44;101649.69;;;18.74;59.09
46942;BME280;32676;52.630;4.896;2023-08-07T11:14:12;101620.75;;;18.68;58.47
46942;BME280;32676;52.630;4.896;2023-08-07T11:16:39;101591.00;;;18.60;59.00
46942;BME280;32676;52.630;4.896;2023-08-07T11:19:05;101611.97;;;18.66;58.71
46942;BME280;32676;52.630;4.896;2023-08-07T11:21:32;101577.69;;;18.60;58.80
46942;BME280;32676;52.630;4.896;2023-08-07T11:24:01;101553.19;;;18.53;59.52
46942;BME280;32676;52.630;4.896;2023-08-07T11:26:28;101561.09;;;18.55;60.09
46942;BME280;32676;52.630;4.896;2023-08-07T11:28:54;101550.63;;;18.52;60.07
46942;BME280;32676;52.630;4.896;2023-08-07T11:31:23;101596.19;;;18.63;59.14
46942;BME280;32676;52.630;4.896;2023-08-07T11:33:50;101659.22;;;18.78;59.01
46942;BME280;32676;52.630;4.896;2023-08-07T11:36:16;101774.19;;;19.04;59.37
46942;BME280;32676;52.630;4.896;2023-08-07T11:38:44;101808.53;;;19.10;58.78
46942;BME280;32676;52.630;4.896;2023-08-07T11:41:12;101829.50;;;19.16;58.66
46942;BME280;32676;52.630;4.896;2023-08-07T11:43:39;101852.38;;;19.21;58.08
46942;BME280;32676;52.630;4.896;2023-08-07T11:46:06;101811.97;;;19.12;57.79
46942;BME280;32676;52.630;4.896;2023-08-07T11:48:33;101780.31;;;19.06;57.64
46942;BME280;32676;52.630;4.896;2023-08-07T11:51:00;101803.19;;;19.10;56.91
46942;BME280;32676;52.630;4.896;2023-08-07T11:53:27;101845.16;;;19.23;57.81
46942;BME280;32676;52.630;4.896;2023-08-07T11:55:55;101875.09;;;19.28;57.61
46942;BME280;32676;52.630;4.896;2023-08-07T11:58:23;101905.81;;;19.35;57.76
46942;BME280;32676;52.630;4.896;2023-08-07T12:00:50;101924.19;;;19.41;57.21
46942;BME280;32676;52.630;4.896;2023-08-07T12:03:25;101999.75;;;19.58;57.97
46942;BME280;32676;52.630;4.896;2023-08-07T12:05:52;102033.19;;;19.65;58.71
46942;BME280;32676;52.630;4.896;2023-08-07T12:08:18;102063.00;;;19.73;57.40
46942;BME280;32676;52.630;4.896;2023-08-07T12:10:48;102033.97;;;19.67;55.60
46942;BME280;32676;52.630;4.896;2023-08-07T12:13:15;102026.88;;;19.66;55.21
46942;BME280;32676;52.630;4.896;2023-08-07T12:15:43;102036.56;;;19.68;55.18
46942;BME280;32676;52.630;4.896;2023-08-07T12:18:09;101994.44;;;19.58;56.38
46942;BME280;32676;52.630;4.896;2023-08-07T12:20:37;102003.03;;;19.63;57.83
46942;BME280;32676;52.630;4.896;2023-08-07T12:23:03;101994.44;;;19.58;56.49
46942;BME280;32676;52.630;4.896;2023-08-07T12:25:29;101977.66;;;19.55;56.45
46942;BME280;32676;52.630;4.896;2023-08-07T12:27:56;101914.38;;;19.42;55.00
46942;BME280;32676;52.630;4.896;2023-08-07T12:30:22;101901.97;;;19.41;54.25
46942;BME280;32676;52.630;4.896;2023-08-07T12:32:50;101917.13;;;19.40;55.88
46942;BME280;32676;52.630;4.896;2023-08-07T12:35:16;101883.66;;;19.34;56.56
46942;BME280;32676;52.630;4.896;2023-08-07T12:37:43;101858.13;;;19.30;56.44
46942;BME280;32676;52.630;4.896;2023-08-07T12:40:09;101816.81;;;19.22;56.59
46942;BME280;32676;52.630;4.896;2023-08-07T12:42:36;101755.31;;;19.09;55.01
46942;BME280;32676;52.630;4.896;2023-08-07T12:45:02;101716.72;;;19.00;55.34
46942;BME280;32676;52.630;4.896;2023-08-07T12:47:29;101700.88;;;18.97;54.70
46942;BME280;32676;52.630;4.896;2023-08-07T12:49:56;101699.94;;;18.98;55.33
46942;BME280;32676;52.630;4.896;2023-08-07T12:52:25;101652.59;;;18.87;54.73
46942;BME280;32676;52.630;4.896;2023-08-07T12:54:51;101594.63;;;18.75;54.85